createdAt,value
2023-01-22T00:07:54.337Z,45.1
2023-01-22T00:12:54.492Z,45.3
2023-01-22T00:17:54.488Z,45.4
2023-01-22T00:27:54.292Z,45.6
2023-01-22T00:52:54.363Z,46.2
2023-01-22T01:02:54.286Z,46.5
2023-01-22T01:12:54.445Z,46.5
2023-01-22T01:22:54.346Z,46.4
2023-01-22T01:32:54.408Z,46.5
2023-01-22T01:37:54.296Z,46.6
2023-01-22T01:42:54.302Z,46.8
2023-01-22T01:52:54.439Z,46.7
2023-01-22T02:12:54.447Z,46.5
2023-01-22T02:17:54.324Z,46.7
2023-01-22T02:27:54.333Z,46.5
2023-01-22T02:37:54.465Z,46.6
2023-01-22T02:47:54.316Z,46.4
2023-01-22T02:52:54.337Z,46.3
2023-01-22T03:02:54.490Z,46.6
2023-01-22T03:12:54.351Z,46.4
2023-01-22T03:27:54.464Z,46.5
2023-01-22T03:32:54.372Z,46.3
2023-01-22T03:42:54.351Z,46.4
2023-01-22T03:47:54.482Z,46.2
2023-01-22T03:57:54.360Z,46
2023-01-22T04:07:54.472Z,46.1
2023-01-22T04:12:54.385Z,46.3
2023-01-22T04:22:54.398Z,46.2
2023-01-22T04:47:54.511Z,46.3
2023-01-22T04:57:54.428Z,46.3
2023-01-22T05:07:54.509Z,46.3
2023-01-22T05:12:54.407Z,46.6
2023-01-22T05:22:54.397Z,46.5
2023-01-22T05:33:00.375Z,46.6
2023-01-22T05:42:54.542Z,46.5
2023-01-22T05:47:54.419Z,46.5
2023-01-22T06:02:54.578Z,46.4
2023-01-22T06:07:54.454Z,46.6
2023-01-22T06:17:54.420Z,46.5
2023-01-22T06:22:54.542Z,46.3
2023-01-22T06:32:54.403Z,46.2
2023-01-22T06:37:54.603Z,46.3
2023-01-22T06:47:54.552Z,46.4
2023-01-22T06:57:54.420Z,46.2
2023-01-22T07:02:54.424Z,46.2
2023-01-22T07:22:54.541Z,46.4
2023-01-22T07:32:54.413Z,46.3
2023-01-22T07:37:54.464Z,46.3
2023-01-22T07:47:54.592Z,46.2
2023-01-22T07:52:54.427Z,46.3
2023-01-22T07:57:54.433Z,46.4
2023-01-22T08:02:54.459Z,46.2
2023-01-22T08:12:54.562Z,46.3
2023-01-22T08:22:54.444Z,46.3
2023-01-22T08:42:54.552Z,46.4
2023-01-22T08:52:54.449Z,46.3
2023-01-22T08:57:54.444Z,46.4
2023-01-22T09:07:54.557Z,46.5
2023-01-22T09:12:54.456Z,46.5
2023-01-22T09:17:54.473Z,46.5
2023-01-22T09:27:54.584Z,46.5
2023-01-22T09:32:54.451Z,46.4
2023-01-22T09:37:54.462Z,46.6
2023-01-22T09:57:54.593Z,46.6
2023-01-22T10:07:54.452Z,46.7
2023-01-22T10:12:54.475Z,46.6
2023-01-22T10:22:54.579Z,46.7
2023-01-22T10:32:54.459Z,46.5
2023-01-22T10:37:54.470Z,46.6
2023-01-22T10:47:54.601Z,46.7
2023-01-22T10:57:54.469Z,46.7
2023-01-22T11:17:54.578Z,46.7
2023-01-22T11:22:54.457Z,47
2023-01-22T11:32:54.451Z,46.7
2023-01-22T11:37:54.593Z,46.8
2023-01-22T11:47:54.457Z,46.7
2023-01-22T11:52:54.471Z,46.9
2023-01-22T11:57:54.582Z,46.9
2023-01-22T12:07:54.468Z,47.1
2023-01-22T12:17:54.583Z,47
2023-01-22T12:32:54.460Z,47.2
2023-01-22T12:37:54.594Z,47.2
2023-01-22T12:47:54.458Z,47.2
2023-01-22T12:52:54.491Z,47.2
2023-01-22T13:02:54.588Z,47.2
2023-01-22T13:12:54.460Z,47.4
2023-01-22T13:22:54.604Z,47.3
2023-01-22T13:27:54.490Z,47.7
2023-01-22T13:52:54.619Z,47.8
2023-01-22T13:57:54.506Z,48.4
2023-01-22T14:07:54.492Z,47.9
2023-01-22T14:12:54.614Z,47.9
2023-01-22T14:22:54.498Z,48
2023-01-22T14:33:00.457Z,47.9
2023-01-22T14:37:54.612Z,47.8
2023-01-22T14:47:54.488Z,47.9
2023-01-22T15:12:54.620Z,47.9
2023-01-22T15:22:54.497Z,48.1
2023-01-22T15:27:54.496Z,48
2023-01-22T15:32:54.643Z,47.9
2023-01-22T15:42:54.496Z,48.1
2023-01-22T15:52:54.618Z,47.9
2023-01-22T16:02:54.499Z,48.2
2023-01-22T16:07:54.497Z,48.1
2023-01-22T16:32:54.619Z,48.4
2023-01-22T16:37:54.508Z,48.5
2023-01-22T16:42:54.539Z,48.6
2023-01-22T16:47:54.508Z,48.4
2023-01-22T16:57:54.619Z,48.4
2023-01-22T17:02:54.573Z,48.5
2023-01-22T17:07:54.495Z,48.5
2023-01-22T17:17:54.612Z,48.4
2023-01-22T17:27:54.505Z,48.6
2023-01-22T17:32:54.494Z,48.7
2023-01-22T17:42:54.636Z,48.5
